createdAt,value
2022-12-13T00:01:47.656Z,1.60
2022-12-13T00:04:16.378Z,1.23
2022-12-13T00:06:46.377Z,1.40
2022-12-13T00:09:15.482Z,1.20
2022-12-13T00:11:43.782Z,1.40
2022-12-13T00:14:14.158Z,1.67
2022-12-13T00:16:42.843Z,1.63
2022-12-13T00:19:11.024Z,1.60
2022-12-13T00:21:39.257Z,1.57
2022-12-13T00:24:09.112Z,1.77
2022-12-13T00:26:37.735Z,1.90
2022-12-13T00:29:08.577Z,1.60
2022-12-13T00:31:59.549Z,1.90
2022-12-13T00:34:25.815Z,2.00
2022-12-13T00:36:55.012Z,1.87
2022-12-13T00:39:24.549Z,1.97
2022-12-13T00:41:52.734Z,2.43
2022-12-13T00:44:21.528Z,2.03
2022-12-13T00:46:51.838Z,1.90
2022-12-13T00:49:20.558Z,2.10
2022-12-13T00:51:49.798Z,2.03
2022-12-13T00:54:18.402Z,2.40
2022-12-13T00:56:47.915Z,2.00
2022-12-13T00:59:17.371Z,2.20
2022-12-13T01:01:46.257Z,2.50
2022-12-13T01:04:14.821Z,2.43
2022-12-13T01:06:45.203Z,2.30
2022-12-13T01:09:19.159Z,1.90
2022-12-13T01:11:49.986Z,2.00
2022-12-13T01:14:19.234Z,2.20
2022-12-13T01:16:47.454Z,1.97
2022-12-13T01:19:15.670Z,2.20
2022-12-13T01:21:43.803Z,2.13
2022-12-13T01:24:12.143Z,2.17
2022-12-13T01:26:40.298Z,2.07
2022-12-13T01:29:11.583Z,2.00
2022-12-13T01:31:42.067Z,2.13
2022-12-13T01:34:11.609Z,2.00
2022-12-13T01:36:40.724Z,2.00
2022-12-13T01:39:15.229Z,1.60
2022-12-13T01:41:45.409Z,2.40
2022-12-13T01:44:46.641Z,1.90
2022-12-13T01:47:19.682Z,1.73
2022-12-13T01:49:48.100Z,2.50
2022-12-13T01:52:17.710Z,2.20
2022-12-13T01:54:49.769Z,2.30
2022-12-13T01:57:21.073Z,2.37
2022-12-13T01:59:51.402Z,2.70
2022-12-13T02:02:21.617Z,2.50
2022-12-13T02:04:56.795Z,3.00
2022-12-13T02:07:32.590Z,3.00
2022-12-13T02:10:02.997Z,3.40
2022-12-13T02:12:35.844Z,3.60
2022-12-13T02:15:07.511Z,2.97
2022-12-13T02:17:52.339Z,3.67
2022-12-13T02:20:50.079Z,3.00
2022-12-13T02:23:56.308Z,3.47
2022-12-13T02:26:43.168Z,3.20
2022-12-13T02:29:35.031Z,3.70
2022-12-13T02:32:15.683Z,3.20
2022-12-13T02:34:48.519Z,2.90
2022-12-13T02:37:21.551Z,2.70
2022-12-13T02:39:55.515Z,3.10
2022-12-13T02:42:27.875Z,2.40
2022-12-13T02:45:01.546Z,2.93
2022-12-13T02:47:33.913Z,2.70
2022-12-13T02:50:08.019Z,3.50
2022-12-13T02:52:36.415Z,3.20
2022-12-13T02:55:08.944Z,3.47
2022-12-13T02:57:40.429Z,3.13
2022-12-13T03:00:12.016Z,3.40
2022-12-13T03:03:01.570Z,2.77
2022-12-13T03:05:55.360Z,2.90
2022-12-13T03:08:26.764Z,2.70
2022-12-13T03:11:04.826Z,2.77
2022-12-13T03:13:39.450Z,2.77
2022-12-13T03:16:22.751Z,2.97
2022-12-13T03:18:54.378Z,2.50
2022-12-13T03:21:22.690Z,2.83
2022-12-13T03:23:50.891Z,2.80
2022-12-13T03:26:22.515Z,2.50
2022-12-13T03:28:50.914Z,2.13
2022-12-13T03:31:19.107Z,2.20
2022-12-13T03:33:47.872Z,2.40
2022-12-13T03:36:19.032Z,2.00
2022-12-13T03:38:48.026Z,2.47
2022-12-13T03:41:20.306Z,4.07
2022-12-13T03:43:48.761Z,2.03
2022-12-13T03:46:17.147Z,2.60
2022-12-13T03:48:45.313Z,2.90
2022-12-13T03:51:13.436Z,2.10
2022-12-13T03:53:43.467Z,2.20
2022-12-13T03:56:11.609Z,2.37
2022-12-13T03:58:42.245Z,3.50
2022-12-13T04:01:12.792Z,3.27
2022-12-13T04:03:42.523Z,2.80
2022-12-13T04:06:11.639Z,3.13
2022-12-13T04:08:40.871Z,2.70
2022-12-13T04:11:27.844Z,2.43
2022-12-13T04:13:58.159Z,3.03
2022-12-13T04:16:27.244Z,2.90
2022-12-13T04:18:55.407Z,2.23
2022-12-13T04:21:23.845Z,2.80
2022-12-13T04:23:51.985Z,3.00
2022-12-13T04:26:21.694Z,3.40
2022-12-13T04:28:54.519Z,2.80
2022-12-13T04:31:23.365Z,3.13
2022-12-13T04:33:52.049Z,3.63
2022-12-13T04:36:32.553Z,3.70
2022-12-13T04:39:01.873Z,3.87
2022-12-13T04:41:34.441Z,3.60
2022-12-13T04:44:04.477Z,5.00
2022-12-13T04:46:32.912Z,4.33
2022-12-13T04:49:01.533Z,4.20
2022-12-13T04:51:29.778Z,4.73
2022-12-13T04:53:58.050Z,4.87
2022-12-13T04:56:47.731Z,3.70
2022-12-13T04:59:16.353Z,4.27
2022-12-13T05:01:44.530Z,4.13
2022-12-13T05:04:12.705Z,4.70
2022-12-13T05:06:40.886Z,4.77
2022-12-13T05:09:11.352Z,5.00
2022-12-13T05:11:45.960Z,4.83
2022-12-13T05:14:23.086Z,5.27
2022-12-13T05:16:52.155Z,5.20
2022-12-13T05:19:20.672Z,5.57
2022-12-13T05:21:49.998Z,5.17
2022-12-13T05:24:18.460Z,5.43
2022-12-13T05:26:47.427Z,5.10
2022-12-13T05:29:16.959Z,5.77
2022-12-13T05:31:45.528Z,6.33
2022-12-13T05:34:13.598Z,6.73
2022-12-13T05:36:41.846Z,6.10
2022-12-13T05:39:28.526Z,6.50
2022-12-13T05:42:01.173Z,5.53
2022-12-13T05:44:33.207Z,4.93
2022-12-13T05:47:03.012Z,4.33
2022-12-13T05:49:31.419Z,4.67
2022-12-13T05:51:59.547Z,4.83
2022-12-13T05:54:28.003Z,4.40
2022-12-13T05:56:56.551Z,4.20
2022-12-13T05:59:24.704Z,4.60
2022-12-13T06:01:54.488Z,4.70
2022-12-13T06:04:23.655Z,5.07
2022-12-13T06:06:52.236Z,5.93
2022-12-13T06:09:20.601Z,5.67
2022-12-13T06:11:48.930Z,4.60
2022-12-13T06:14:22.317Z,6.57
2022-12-13T06:16:54.035Z,6.00
2022-12-13T06:19:22.389Z,5.83
2022-12-13T06:21:50.620Z,3.13
2022-12-13T06:24:20.937Z,4.70
2022-12-13T06:26:49.568Z,4.73
2022-12-13T06:29:24.143Z,5.67
2022-12-13T06:32:01.304Z,3.67
2022-12-13T06:34:32.145Z,4.53
2022-12-13T06:37:00.752Z,3.80
2022-12-13T06:39:32.535Z,4.10
2022-12-13T06:42:01.767Z,4.60
2022-12-13T06:44:29.887Z,4.10
2022-12-13T06:47:11.755Z,4.83
2022-12-13T06:49:41.856Z,4.67
2022-12-13T06:52:11.922Z,4.40
2022-12-13T06:54:40.175Z,6.00
2022-12-13T06:57:08.357Z,5.03
2022-12-13T06:59:36.672Z,4.30
2022-12-13T07:02:06.216Z,4.63
2022-12-13T07:04:46.302Z,4.30
2022-12-13T07:07:14.422Z,4.17
2022-12-13T07:09:42.920Z,4.00
2022-12-13T07:12:11.492Z,4.77
2022-12-13T07:14:40.728Z,3.40
2022-12-13T07:17:10.957Z,4.23
2022-12-13T07:19:39.785Z,4.93
2022-12-13T07:22:08.007Z,5.60
2022-12-13T07:24:36.524Z,3.63
2022-12-13T07:27:05.111Z,5.60
2022-12-13T07:29:33.500Z,5.97
2022-12-13T07:32:02.251Z,4.73
2022-12-13T07:34:31.995Z,5.10
2022-12-13T07:37:00.295Z,5.80
2022-12-13T07:39:28.592Z,5.30
2022-12-13T07:41:57.270Z,5.27
2022-12-13T07:44:25.970Z,4.97
2022-12-13T07:46:54.252Z,5.30
2022-12-13T07:49:22.401Z,6.23
2022-12-13T07:51:51.899Z,5.00
2022-12-13T07:54:20.138Z,5.70
2022-12-13T07:56:48.237Z,5.67
2022-12-13T07:59:16.540Z,5.80
2022-12-13T08:01:57.175Z,4.67
2022-12-13T08:04:30.060Z,5.77
2022-12-13T08:07:10.086Z,5.70
2022-12-13T08:09:38.464Z,4.73
2022-12-13T08:12:06.874Z,5.57
2022-12-13T08:14:35.170Z,5.03
2022-12-13T08:17:03.297Z,4.87
2022-12-13T08:19:31.369Z,4.47
2022-12-13T08:22:01.676Z,5.23
2022-12-13T08:24:32.525Z,6.27
2022-12-13T08:27:03.485Z,5.80
2022-12-13T08:29:34.180Z,5.80
2022-12-13T08:32:05.013Z,5.77
2022-12-13T08:34:33.264Z,4.63
2022-12-13T08:37:03.612Z,5.07
2022-12-13T08:39:35.922Z,4.70
2022-12-13T08:42:16.782Z,5.20
2022-12-13T08:44:45.710Z,5.60
2022-12-13T08:47:24.001Z,6.20
2022-12-13T08:49:54.546Z,5.20
2022-12-13T08:52:23.974Z,4.43
2022-12-13T08:54:54.153Z,4.07
2022-12-13T08:57:22.241Z,5.73
2022-12-13T08:59:50.348Z,4.57
2022-12-13T09:02:18.644Z,4.53
2022-12-13T09:04:46.884Z,5.20
2022-12-13T09:07:15.019Z,5.20
2022-12-13T09:09:43.099Z,5.73
2022-12-13T09:12:29.917Z,6.57
2022-12-13T09:15:01.280Z,5.33
2022-12-13T09:17:33.452Z,5.83
2022-12-13T09:20:10.013Z,6.20
2022-12-13T09:23:01.883Z,4.83
2022-12-13T09:25:36.672Z,4.80
2022-12-13T09:28:09.690Z,5.30
2022-12-13T09:30:38.436Z,5.20
2022-12-13T09:33:18.091Z,4.07
2022-12-13T09:35:55.117Z,4.60
2022-12-13T09:38:23.304Z,4.80
2022-12-13T09:40:59.025Z,5.53
2022-12-13T09:43:42.970Z,5.20
2022-12-13T09:46:34.464Z,5.53
2022-12-13T09:49:23.129Z,5.27
2022-12-13T09:52:10.987Z,4.53
2022-12-13T09:54:48.337Z,4.20
2022-12-13T09:57:32.743Z,5.70
2022-12-13T10:00:07.039Z,5.40
2022-12-13T10:02:43.716Z,4.77
2022-12-13T10:05:21.854Z,4.70
2022-12-13T10:07:53.792Z,5.23
2022-12-13T10:10:22.154Z,4.33
2022-12-13T10:12:57.363Z,5.40
2022-12-13T10:15:29.085Z,4.17
2022-12-13T10:17:57.767Z,5.83
2022-12-13T10:20:29.393Z,4.30
2022-12-13T10:25:50.945Z,4.80
2022-12-13T10:28:25.823Z,5.10
2022-12-13T10:30:56.202Z,3.67
2022-12-13T10:33:27.510Z,4.73
2022-12-13T10:36:32.195Z,4.80
2022-12-13T10:39:00.362Z,7.93
2022-12-13T10:41:39.036Z,6.93
2022-12-13T10:44:25.618Z,6.67
2022-12-13T10:47:16.880Z,5.90
2022-12-13T10:49:59.116Z,5.03
2022-12-13T10:52:32.037Z,5.90
2022-12-13T10:55:04.621Z,5.50
2022-12-13T10:57:53.902Z,5.30
2022-12-13T11:00:42.126Z,5.33
2022-12-13T11:03:16.225Z,5.40
2022-12-13T11:05:46.817Z,4.60
2022-12-13T11:08:23.675Z,4.80
2022-12-13T11:10:59.561Z,4.27
2022-12-13T11:13:37.059Z,4.60
2022-12-13T11:16:06.754Z,3.70
2022-12-13T11:18:40.570Z,5.10
2022-12-13T11:21:08.748Z,4.10
2022-12-13T11:23:40.967Z,4.53
2022-12-13T11:26:12.439Z,4.53
2022-12-13T11:29:02.609Z,5.20
2022-12-13T11:31:43.814Z,5.63
2022-12-13T11:34:24.886Z,3.80
2022-12-13T11:37:00.282Z,4.50
2022-12-13T11:39:33.252Z,4.33
2022-12-13T11:42:11.073Z,4.20
2022-12-13T11:44:48.264Z,4.70
2022-12-13T11:47:24.288Z,4.70
2022-12-13T11:49:54.631Z,4.87
2022-12-13T11:52:28.535Z,5.40
2022-12-13T11:55:01.127Z,4.47
2022-12-13T11:57:40.872Z,4.70
2022-12-13T12:00:33.691Z,4.13
2022-12-13T12:03:18.046Z,4.60
2022-12-13T12:05:55.928Z,5.20
2022-12-13T12:08:34.888Z,4.63
2022-12-13T12:11:10.273Z,4.63
2022-12-13T12:13:51.456Z,4.93
2022-12-13T12:16:30.351Z,5.00
2022-12-13T12:19:01.497Z,4.00
2022-12-13T12:24:37.962Z,4.13
2022-12-13T12:27:23.827Z,4.43
2022-12-13T12:30:22.480Z,4.57
2022-12-13T12:33:04.229Z,5.20
2022-12-13T12:35:52.593Z,4.93
2022-12-13T12:38:51.568Z,4.67
2022-12-13T12:41:33.846Z,3.50
2022-12-13T12:44:07.194Z,4.43
2022-12-13T12:47:18.051Z,4.90
2022-12-13T12:50:03.926Z,4.73
2022-12-13T12:52:44.133Z,4.47
2022-12-13T12:55:21.187Z,5.30
2022-12-13T12:58:05.985Z,4.37
2022-12-13T13:00:45.138Z,5.23
2022-12-13T13:03:23.059Z,5.40
2022-12-13T13:06:01.661Z,5.30
2022-12-13T13:08:36.120Z,5.93
2022-12-13T13:11:25.139Z,5.27
2022-12-13T13:14:03.905Z,5.90
2022-12-13T13:16:35.443Z,6.20
2022-12-13T13:19:04.390Z,6.30
2022-12-13T13:21:44.006Z,5.67
2022-12-13T13:24:26.432Z,5.10
2022-12-13T13:26:57.769Z,5.60
2022-12-13T13:29:37.391Z,6.23
2022-12-13T13:32:31.918Z,6.90
2022-12-13T13:35:53.788Z,6.57
2022-12-13T13:38:45.020Z,6.90
2022-12-13T13:41:52.294Z,6.57
2022-12-13T13:45:08.994Z,5.70
2022-12-13T13:47:42.248Z,8.27
2022-12-13T13:50:55.697Z,8.03
2022-12-13T13:53:57.153Z,7.33
2022-12-13T13:56:50.159Z,7.90
2022-12-13T14:00:12.097Z,6.80
2022-12-13T14:03:32.665Z,7.40
2022-12-13T14:06:35.724Z,6.13
2022-12-13T14:09:28.301Z,7.40
2022-12-13T14:12:29.240Z,7.80
2022-12-13T14:15:51.107Z,12.83
2022-12-13T14:19:11.355Z,9.30
2022-12-13T14:21:55.654Z,8.53
2022-12-13T14:24:39.956Z,18.30
2022-12-13T14:27:20.778Z,12.03
2022-12-13T14:29:57.940Z,16.50
2022-12-13T14:32:29.584Z,10.40
2022-12-13T14:34:58.750Z,20.40
2022-12-13T14:37:30.668Z,7.27
2022-12-13T14:40:01.152Z,6.07
2022-12-13T14:42:33.905Z,6.37
2022-12-13T14:45:16.100Z,5.80
2022-12-13T14:47:45.139Z,6.37
2022-12-13T14:50:18.026Z,10.50
2022-12-13T14:52:47.491Z,12.33
2022-12-13T14:55:26.773Z,13.00
2022-12-13T14:57:56.289Z,12.80
2022-12-13T15:00:29.076Z,12.00
2022-12-13T15:03:00.172Z,15.57
2022-12-13T15:05:30.103Z,16.60
2022-12-13T15:07:59.065Z,16.93
2022-12-13T15:10:38.931Z,19.30
2022-12-13T15:13:07.461Z,21.23
2022-12-13T15:15:38.051Z,22.17
2022-12-13T15:18:26.127Z,20.00
2022-12-13T15:20:56.892Z,22.50
2022-12-13T15:23:28.964Z,17.80
2022-12-13T15:26:02.200Z,13.50
2022-12-13T15:28:34.611Z,16.20
2022-12-13T15:31:03.704Z,16.80
2022-12-13T15:33:36.732Z,20.10
2022-12-13T15:36:10.728Z,16.07
2022-12-13T15:38:45.310Z,14.10
2022-12-13T15:41:20.105Z,14.10
2022-12-13T15:43:52.665Z,13.80
2022-12-13T15:46:27.037Z,15.63
2022-12-13T15:48:57.374Z,14.03
2022-12-13T15:51:30.347Z,14.40
2022-12-13T15:54:05.349Z,17.67
2022-12-13T15:56:36.618Z,16.10
2022-12-13T15:59:06.284Z,18.50
2022-12-13T16:01:36.903Z,17.50
2022-12-13T16:04:06.390Z,18.90
2022-12-13T16:06:35.463Z,17.53
2022-12-13T16:09:06.958Z,17.57
2022-12-13T16:11:40.748Z,18.00
2022-12-13T16:14:40.145Z,19.00
2022-12-13T16:17:25.817Z,21.67
2022-12-13T16:19:55.185Z,33.30
2022-12-13T16:22:24.222Z,26.80
2022-12-13T16:24:56.540Z,21.93
2022-12-13T16:27:26.099Z,20.80
2022-12-13T16:29:54.237Z,14.87
2022-12-13T16:32:23.586Z,14.93
2022-12-13T16:34:51.752Z,16.47
2022-12-13T16:37:26.527Z,23.90
2022-12-13T16:39:55.574Z,22.30
2022-12-13T16:42:26.911Z,18.93
2022-12-13T16:45:32.363Z,18.07
2022-12-13T16:47:48.864Z,20.27
2022-12-13T16:50:20.076Z,17.03
2022-12-13T16:52:48.357Z,17.90
2022-12-13T16:55:16.732Z,17.30
2022-12-13T16:57:55.496Z,13.43
2022-12-13T17:00:23.829Z,13.80
2022-12-13T17:02:51.979Z,14.38
2022-12-13T17:05:20.853Z,15.13
2022-12-13T17:07:49.575Z,12.57
2022-12-13T17:10:18.797Z,14.43
2022-12-13T17:12:48.450Z,16.85
2022-12-13T17:15:16.698Z,16.60
2022-12-13T17:17:46.768Z,15.40
2022-12-13T17:20:16.776Z,13.30
2022-12-13T17:22:46.373Z,12.27
2022-12-13T17:25:15.085Z,12.80
2022-12-13T17:27:43.503Z,12.70
2022-12-13T17:30:17.522Z,12.88
2022-12-13T17:32:46.226Z,11.60
2022-12-13T17:35:18.063Z,12.63
2022-12-13T17:37:46.930Z,9.47
2022-12-13T17:40:15.087Z,9.70
2022-12-13T17:42:43.312Z,11.13
2022-12-13T17:45:13.519Z,9.82
2022-12-13T17:47:41.726Z,11.07
2022-12-13T17:50:10.722Z,10.80
2022-12-13T17:52:40.098Z,8.70
2022-12-13T17:55:14.919Z,10.07
2022-12-13T17:57:46.802Z,12.47
2022-12-13T18:00:17.613Z,10.73
2022-12-13T18:02:55.564Z,8.60
2022-12-13T18:05:26.394Z,9.95
2022-12-13T18:07:54.558Z,9.83
2022-12-13T18:10:29.290Z,10.20
2022-12-13T18:12:58.421Z,8.70
2022-12-13T18:15:28.078Z,9.20
2022-12-13T18:18:13.697Z,9.70
2022-12-13T18:20:42.034Z,7.97
2022-12-13T18:23:10.194Z,7.57
2022-12-13T18:25:38.583Z,8.20
2022-12-13T18:28:10.238Z,8.57
2022-12-13T18:30:39.984Z,7.33
2022-12-13T18:33:08.115Z,9.93
2022-12-13T18:35:36.197Z,8.50
2022-12-13T18:38:08.863Z,9.67
2022-12-13T18:40:37.558Z,8.57
2022-12-13T18:43:05.757Z,8.90
2022-12-13T18:45:33.938Z,8.50
2022-12-13T18:48:03.607Z,8.27
2022-12-13T18:50:31.707Z,9.07
2022-12-13T18:52:59.835Z,8.33
2022-12-13T18:55:28.331Z,8.50
2022-12-13T18:57:56.532Z,7.90
2022-12-13T19:00:27.000Z,6.60
2022-12-13T19:02:55.528Z,7.90
2022-12-13T19:05:25.191Z,8.20
2022-12-13T19:07:53.429Z,7.33
2022-12-13T19:10:21.602Z,7.67
2022-12-13T19:12:49.710Z,6.97
2022-12-13T19:15:18.995Z,7.20
2022-12-13T19:17:48.098Z,7.60
2022-12-13T19:20:16.750Z,8.90
2022-12-13T19:22:46.991Z,8.20
2022-12-13T19:25:17.027Z,9.20
2022-12-13T19:27:47.469Z,10.20
2022-12-13T19:30:17.801Z,10.93
2022-12-13T19:32:48.370Z,9.10
2022-12-13T19:35:16.869Z,9.70
2022-12-13T19:37:46.520Z,9.60
2022-12-13T19:40:14.824Z,7.50
2022-12-13T19:42:43.052Z,7.47
2022-12-13T19:45:11.316Z,7.50
2022-12-13T19:47:39.587Z,8.60
2022-12-13T19:50:08.393Z,8.60
2022-12-13T19:52:36.510Z,8.00
2022-12-13T19:55:06.846Z,8.20
2022-12-13T19:57:35.084Z,8.70
2022-12-13T20:00:04.262Z,8.13
2022-12-13T20:02:32.425Z,9.35
2022-12-13T20:05:00.562Z,8.25
2022-12-13T20:07:28.925Z,8.07
2022-12-13T20:09:56.971Z,9.37
2022-12-13T20:12:26.473Z,10.13
2022-12-13T20:14:55.603Z,7.43
2022-12-13T20:17:23.791Z,7.17
2022-12-13T20:19:51.929Z,8.80
2022-12-13T20:22:20.271Z,8.80
2022-12-13T20:24:48.389Z,7.23
2022-12-13T20:27:16.510Z,8.43
2022-12-13T20:29:48.374Z,7.43
2022-12-13T20:32:17.889Z,7.70
2022-12-13T20:34:49.119Z,8.73
2022-12-13T20:37:19.798Z,8.53
2022-12-13T20:39:48.054Z,7.97
2022-12-13T20:42:16.487Z,6.70
2022-12-13T20:44:46.094Z,9.63
2022-12-13T20:47:14.298Z,7.37
2022-12-13T20:49:42.828Z,12.03
2022-12-13T20:52:17.057Z,14.70
2022-12-13T20:54:45.592Z,13.00
2022-12-13T20:57:13.747Z,10.70
2022-12-13T20:59:42.311Z,9.37
2022-12-13T21:02:13.655Z,9.38
2022-12-13T21:04:43.734Z,9.10
2022-12-13T21:07:11.984Z,8.87
2022-12-13T21:09:40.279Z,7.73
2022-12-13T21:12:08.550Z,9.00
2022-12-13T21:14:37.005Z,8.90
2022-12-13T21:17:09.701Z,8.53
2022-12-13T21:19:40.651Z,8.98
2022-12-13T21:22:08.868Z,8.77
2022-12-13T21:24:37.534Z,8.13
2022-12-13T21:27:06.036Z,8.23
2022-12-13T21:29:34.165Z,7.50
2022-12-13T21:32:02.525Z,8.60
2022-12-13T21:34:30.683Z,7.90
2022-12-13T21:37:02.790Z,8.43
2022-12-13T21:39:36.787Z,7.45
2022-12-13T21:42:06.114Z,7.72
2022-12-13T21:44:34.467Z,7.80
2022-12-13T21:47:18.142Z,7.90
2022-12-13T21:49:48.597Z,7.80
2022-12-13T21:52:18.850Z,8.97
2022-12-13T21:54:47.113Z,8.10
2022-12-13T21:57:32.707Z,9.45
2022-12-13T22:00:01.170Z,9.03
2022-12-13T22:02:29.373Z,7.77
2022-12-13T22:04:58.972Z,7.82
2022-12-13T22:07:30.096Z,8.30
2022-12-13T22:09:59.383Z,7.47
2022-12-13T22:12:29.842Z,7.70
2022-12-13T22:14:58.154Z,7.87
2022-12-13T22:17:34.673Z,7.50
2022-12-13T22:20:04.071Z,7.33
2022-12-13T22:22:34.674Z,7.97
2022-12-13T22:25:05.777Z,6.27
2022-12-13T22:27:33.886Z,6.70
2022-12-13T22:30:01.928Z,6.20
2022-12-13T22:32:34.019Z,7.80
2022-12-13T22:35:02.207Z,6.90
2022-12-13T22:37:30.399Z,7.90
2022-12-13T22:40:00.149Z,8.33
2022-12-13T22:42:28.425Z,7.70
2022-12-13T22:44:56.765Z,8.30
2022-12-13T22:47:27.488Z,8.20
2022-12-13T22:49:58.757Z,7.93
2022-12-13T22:52:33.433Z,7.77
2022-12-13T22:55:04.704Z,8.20
2022-12-13T22:57:33.151Z,8.30
2022-12-13T23:00:01.339Z,8.80
2022-12-13T23:02:29.564Z,8.20
2022-12-13T23:04:57.689Z,9.20
2022-12-13T23:07:27.795Z,8.80
2022-12-13T23:09:56.305Z,8.97
2022-12-13T23:12:43.307Z,10.33
2022-12-13T23:15:12.340Z,11.30
2022-12-13T23:17:40.580Z,8.33
2022-12-13T23:20:10.309Z,7.07
2022-12-13T23:22:38.729Z,6.80
2022-12-13T23:25:08.187Z,7.07
2022-12-13T23:27:38.114Z,7.20
2022-12-13T23:30:10.181Z,6.37
2022-12-13T23:32:38.451Z,7.03
2022-12-13T23:35:08.526Z,6.73
2022-12-13T23:37:36.769Z,6.60
2022-12-13T23:40:06.063Z,6.50
2022-12-13T23:42:34.585Z,6.70
2022-12-13T23:45:04.333Z,7.80
2022-12-13T23:47:32.631Z,7.87
2022-12-13T23:50:00.965Z,7.40
2022-12-13T23:52:29.347Z,6.40
2022-12-13T23:54:57.747Z,7.97
2022-12-13T23:57:26.193Z,10.70
2022-12-13T23:59:54.668Z,12.80
